createdAt,value
2022-08-22T00:09:05.448Z,49.14
2022-08-22T00:39:15.190Z,50.16
2022-08-22T01:09:24.856Z,50.84
2022-08-22T01:40:06.495Z,52.46
2022-08-22T02:10:16.354Z,53.02
2022-08-22T02:40:30.368Z,53.67
2022-08-22T03:10:38.090Z,54.48
2022-08-22T03:40:53.907Z,55.24
2022-08-22T04:11:17.990Z,55.98
2022-08-22T04:41:26.719Z,57.14
2022-08-22T05:11:31.753Z,58.25
2022-08-22T05:41:37.460Z,58.07
2022-08-22T06:11:44.950Z,55.89
2022-08-22T06:41:57.678Z,54.64
2022-08-22T07:12:06.089Z,53.72
2022-08-22T07:42:14.526Z,51.75
2022-08-22T08:12:20.541Z,45.40
2022-08-22T08:43:09.014Z,35.07
2022-08-22T09:13:28.957Z,35.78
2022-08-22T09:43:48.463Z,28.60
2022-08-22T10:14:01.220Z,25.82
2022-08-22T10:44:18.271Z,24.47
2022-08-22T11:14:43.156Z,22.74
2022-08-22T11:44:53.803Z,23.71
2022-08-22T12:15:02.377Z,20.88
2022-08-22T12:45:23.899Z,21.64
2022-08-22T13:15:31.665Z,24.33
2022-08-22T13:45:37.851Z,19.71
2022-08-22T14:15:45.665Z,20.97
2022-08-22T14:46:02.235Z,19.14
2022-08-22T15:16:17.576Z,24.58
2022-08-22T15:46:30.526Z,25.02
2022-08-22T16:16:54.942Z,27.09
2022-08-22T16:47:09.822Z,28.64
2022-08-22T17:17:23.631Z,29.30
2022-08-22T17:47:34.051Z,30.59
2022-08-22T18:17:41.356Z,33.87
2022-08-22T18:47:55.192Z,35.75
2022-08-22T19:18:22.983Z,36.20
2022-08-22T19:48:29.111Z,35.46
2022-08-22T20:19:15.312Z,37.07
2022-08-22T20:49:21.204Z,37.81
2022-08-22T21:19:29.058Z,39.15
2022-08-22T21:49:33.094Z,39.91
2022-08-22T22:19:38.589Z,40.89
2022-08-22T22:49:44.723Z,41.64
2022-08-22T23:19:49.138Z,41.40
2022-08-22T23:49:53.203Z,43.30
